Indian Creek Village, Florida
Current Conditions -  °F | °C
As of 3:53 PM on Monday 22 Dec 2014 (Local Time) from KOPF Reporting Station
Few Clouds Few Clouds  
Wind Chill: 80°   Ceiling: Unl
Heat Index: 83°   Visibility: 10mi
Dew Point: 69°   Wind: 14mph
Humidity: 69%   Direction: 160°SSE
Pressure: 29.95"   Gusts: NA
Location:  25.882°N, 80.1292°W
Report Text: KOPF 222053Z 16012KT 10SM FEW023 27/21 A2995 RMK AO2 SLP142 T02670206 56016
Loading
Personal Weather Stations






























Interactive Weather Map New forecast layout! Learn more

10-Day Weather Forecast

Advertisements
Track Severe Weather on mobile